Luzern — HBLU — position and weather

sailwx.info

Track history (hours):
 
Tides and Currents Weather Stations Pressure Air Temp Water Temp Dewpoint Dewpoint Depression Visibility Wind Speed Wind Dir Waves Ship Positions

Luzern

Last reported at 2018-Apr-28 18:53 UTC. Time now 2018-Jun-18 23:18 UTC.
Position N 07°53' W 014°38'.
Warning: this ship's position is 51 days out of date.

Length 190 m; draft 9.7 m.

Type: Cargo ship. MMSI: 269036000.

Date/timePositionNaut miles runAvg speedWind from/ knotsBaromVisibWave heightAir tempDewpointWater temp
2018-Apr-28 18:53N 07°53' W 014°38'2711.8
2018-Apr-28 16:37N 08°11' W 014°58'211.9
2018-Apr-28 16:28N 08°12' W 014°59'1811.8
2018-Apr-28 14:54N 08°25' W 015°13'511.7
2018-Apr-28 14:30N 08°28' W 015°16'911.6
2018-Apr-28 13:44N 08°34' W 015°23'  
2018-Apr-21 22:42N 35°58' W 005°32'2 7.5
2018-Apr-21 22:28N 35°59' W 005°30'3 6.8
2018-Apr-21 22:00N 36°00' W 005°27'4 7.3
2018-Apr-21 21:31N 36°03' W 005°24'4 7.6
2018-Apr-21 20:55N 36°07' W 005°23'1 1.4
2018-Apr-21 20:15N 36°08' W 005°23'0 0.1
2018-Apr-21 20:00N 36°08' W 005°23'0 0.1
2018-Apr-21 19:30N 36°08' W 005°23'0 0.0
2018-Apr-21 18:59N 36°08' W 005°23'0 0.1
2018-Apr-21 18:11N 36°08' W 005°23'0 0.1
2018-Apr-21 17:50N 36°08' W 005°23'0 0.2
2018-Apr-21 17:26N 36°08' W 005°23'0 0.0
2018-Apr-21 13:23N 36°08' W 005°23'0 0.0
2018-Apr-21 12:08N 36°08' W 005°23'0 0.2
2018-Apr-21 11:53N 36°08' W 005°23'0 0.0
2018-Apr-21 10:05N 36°08' W 005°23'0 0.1
2018-Apr-21 09:47N 36°08' W 005°23'0 0.1
2018-Apr-21 09:26N 36°08' W 005°23'0 0.2
2018-Apr-21 08:56N 36°08' W 005°23'0 0.0
2018-Apr-21 08:29N 36°08' W 005°23'0 0.2
2018-Apr-21 07:56N 36°08' W 005°23'0 0.1
2018-Apr-21 07:23N 36°08' W 005°23'0 0.1
2018-Apr-21 05:59N 36°08' W 005°23'0 0.2
2018-Apr-21 05:29N 36°08' W 005°23'0 0.2
2018-Apr-21 04:59N 36°08' W 005°23'0 0.1
2018-Apr-21 04:29N 36°08' W 005°23'0 0.1
2018-Apr-21 03:56N 36°08' W 005°23'0 0.0
2018-Apr-21 03:20N 36°08' W 005°23'0 0.0
2018-Apr-21 02:56N 36°08' W 005°23'0 0.0
2018-Apr-21 02:29N 36°08' W 005°23'0 0.0
2018-Apr-21 01:59N 36°08' W 005°23'0 0.0
2018-Apr-21 01:26N 36°08' W 005°23'0 0.1
2018-Apr-21 00:50N 36°08' W 005°23'0 0.1
2018-Apr-21 00:29N 36°08' W 005°23'0 0.1
2018-Apr-20 23:50N 36°08' W 005°23'0 0.4
2018-Apr-20 23:28N 36°08' W 005°23'0 0.1
2018-Apr-20 22:59N 36°08' W 005°23'0 0.2
2018-Apr-20 22:30N 36°08' W 005°23'2 3.7
2018-Apr-20 22:00N 36°06' W 005°22'2 3.1
2018-Apr-20 21:30N 36°06' W 005°20'2 3.5
2018-Apr-20 21:00N 36°05' W 005°18'3 6.5
2018-Apr-20 20:30N 36°07' W 005°15'2 2.1
2018-Apr-20 19:23N 36°07' W 005°12'1 3.4
2018-Apr-20 19:00N 36°06' W 005°13'1 2.0
2018-Apr-20 18:30N 36°06' W 005°14'  
Track history (hours):
 
Tides and Currents Weather Stations Pressure Air Temp Water Temp Dewpoint Dewpoint Depression Visibility Wind Speed Wind Dir Waves Ship Positions

Luzern

Last reported at 2018-Apr-28 18:53 UTC. Time now 2018-Jun-18 23:18 UTC.
Position N 07°53' W 014°38'.
Warning: this ship's position is 51 days out of date.

Length 190 m; draft 9.7 m.

Type: Cargo ship. MMSI: 269036000.

Date/timePositionNaut miles runAvg speedWind from/ knotsBaromVisibWave heightAir tempDewpointWater temp
2018-Apr-28 18:53N 07°53' W 014°38'2711.8
2018-Apr-28 16:37N 08°11' W 014°58'211.9
2018-Apr-28 16:28N 08°12' W 014°59'1811.8
2018-Apr-28 14:54N 08°25' W 015°13'511.7
2018-Apr-28 14:30N 08°28' W 015°16'911.6
2018-Apr-28 13:44N 08°34' W 015°23'  
2018-Apr-21 22:42N 35°58' W 005°32'2 7.5
2018-Apr-21 22:28N 35°59' W 005°30'3 6.8
2018-Apr-21 22:00N 36°00' W 005°27'4 7.3
2018-Apr-21 21:31N 36°03' W 005°24'4 7.6
2018-Apr-21 20:55N 36°07' W 005°23'1 1.4
2018-Apr-21 20:15N 36°08' W 005°23'0 0.1
2018-Apr-21 20:00N 36°08' W 005°23'0 0.1
2018-Apr-21 19:30N 36°08' W 005°23'0 0.0
2018-Apr-21 18:59N 36°08' W 005°23'0 0.1
2018-Apr-21 18:11N 36°08' W 005°23'0 0.1
2018-Apr-21 17:50N 36°08' W 005°23'0 0.2
2018-Apr-21 17:26N 36°08' W 005°23'0 0.0
2018-Apr-21 13:23N 36°08' W 005°23'0 0.0
2018-Apr-21 12:08N 36°08' W 005°23'0 0.2
2018-Apr-21 11:53N 36°08' W 005°23'0 0.0
2018-Apr-21 10:05N 36°08' W 005°23'0 0.1
2018-Apr-21 09:47N 36°08' W 005°23'0 0.1
2018-Apr-21 09:26N 36°08' W 005°23'0 0.2
2018-Apr-21 08:56N 36°08' W 005°23'0 0.0
2018-Apr-21 08:29N 36°08' W 005°23'0 0.2
2018-Apr-21 07:56N 36°08' W 005°23'0 0.1
2018-Apr-21 07:23N 36°08' W 005°23'0 0.1
2018-Apr-21 05:59N 36°08' W 005°23'0 0.2
2018-Apr-21 05:29N 36°08' W 005°23'0 0.2
2018-Apr-21 04:59N 36°08' W 005°23'0 0.1
2018-Apr-21 04:29N 36°08' W 005°23'0 0.1
2018-Apr-21 03:56N 36°08' W 005°23'0 0.0
2018-Apr-21 03:20N 36°08' W 005°23'0 0.0
2018-Apr-21 02:56N 36°08' W 005°23'0 0.0
2018-Apr-21 02:29N 36°08' W 005°23'0 0.0
2018-Apr-21 01:59N 36°08' W 005°23'0 0.0
2018-Apr-21 01:26N 36°08' W 005°23'0 0.1
2018-Apr-21 00:50N 36°08' W 005°23'0 0.1
2018-Apr-21 00:29N 36°08' W 005°23'0 0.1
2018-Apr-20 23:50N 36°08' W 005°23'0 0.4
2018-Apr-20 23:28N 36°08' W 005°23'0 0.1
2018-Apr-20 22:59N 36°08' W 005°23'0 0.2
2018-Apr-20 22:30N 36°08' W 005°23'2 3.7
2018-Apr-20 22:00N 36°06' W 005°22'2 3.1
2018-Apr-20 21:30N 36°06' W 005°20'2 3.5
2018-Apr-20 21:00N 36°05' W 005°18'3 6.5
2018-Apr-20 20:30N 36°07' W 005°15'2 2.1
2018-Apr-20 19:23N 36°07' W 005°12'1 3.4
2018-Apr-20 19:00N 36°06' W 005°13'1 2.0
2018-Apr-20 18:30N 36°06' W 005°14'  

Dump ship's entire track history